sensor_id;sensor_type;location;lat;lon;timestamp;P1;durP1;ratioP1;P2;durP2;ratioP2
6564;SDS011;3316;44.118;27.258;2024-01-10T00:00:34;8.37;;;4.40;;
6564;SDS011;3316;44.118;27.258;2024-01-10T00:03:02;7.87;;;5.00;;
6564;SDS011;3316;44.118;27.258;2024-01-10T00:05:28;7.17;;;4.30;;
6564;SDS011;3316;44.118;27.258;2024-01-10T00:07:53;8.50;;;4.43;;
6564;SDS011;3316;44.118;27.258;2024-01-10T00:10:19;7.93;;;3.90;;
6564;SDS011;3316;44.118;27.258;2024-01-10T00:12:46;11.90;;;4.57;;
6564;SDS011;3316;44.118;27.258;2024-01-10T00:15:12;8.53;;;3.87;;
6564;SDS011;3316;44.118;27.258;2024-01-10T00:17:37;5.27;;;3.80;;
6564;SDS011;3316;44.118;27.258;2024-01-10T00:20:05;6.33;;;4.00;;
6564;SDS011;3316;44.118;27.258;2024-01-10T00:22:31;6.83;;;4.10;;
6564;SDS011;3316;44.118;27.258;2024-01-10T00:24:57;6.00;;;3.87;;
6564;SDS011;3316;44.118;27.258;2024-01-10T00:27:22;8.23;;;4.33;;
6564;SDS011;3316;44.118;27.258;2024-01-10T00:29:47;7.83;;;4.50;;
6564;SDS011;3316;44.118;27.258;2024-01-10T00:32:13;9.93;;;4.17;;
6564;SDS011;3316;44.118;27.258;2024-01-10T00:34:38;8.23;;;4.50;;
6564;SDS011;3316;44.118;27.258;2024-01-10T00:37:04;8.33;;;5.10;;
6564;SDS011;3316;44.118;27.258;2024-01-10T00:39:29;7.47;;;4.30;;
6564;SDS011;3316;44.118;27.258;2024-01-10T00:41:55;9.47;;;4.93;;
6564;SDS011;3316;44.118;27.258;2024-01-10T00:44:20;6.73;;;4.07;;
6564;SDS011;3316;44.118;27.258;2024-01-10T00:46:46;5.57;;;4.10;;
6564;SDS011;3316;44.118;27.258;2024-01-10T00:49:11;9.50;;;4.70;;
6564;SDS011;3316;44.118;27.258;2024-01-10T00:51:36;7.43;;;4.40;;
6564;SDS011;3316;44.118;27.258;2024-01-10T00:54:02;7.63;;;4.87;;
6564;SDS011;3316;44.118;27.258;2024-01-10T00:56:27;7.57;;;4.73;;
6564;SDS011;3316;44.118;27.258;2024-01-10T00:58:53;9.93;;;5.00;;
6564;SDS011;3316;44.118;27.258;2024-01-10T01:01:22;5.90;;;4.23;;
6564;SDS011;3316;44.118;27.258;2024-01-10T01:03:48;8.63;;;4.90;;
6564;SDS011;3316;44.118;27.258;2024-01-10T01:06:14;10.10;;;4.50;;
6564;SDS011;3316;44.118;27.258;2024-01-10T01:08:39;8.93;;;4.97;;
6564;SDS011;3316;44.118;27.258;2024-01-10T01:11:05;9.30;;;5.30;;
6564;SDS011;3316;44.118;27.258;2024-01-10T01:13:30;9.57;;;5.17;;
6564;SDS011;3316;44.118;27.258;2024-01-10T01:15:56;8.77;;;5.23;;
6564;SDS011;3316;44.118;27.258;2024-01-10T01:18:22;8.47;;;4.97;;
6564;SDS011;3316;44.118;27.258;2024-01-10T01:20:47;9.13;;;5.07;;
6564;SDS011;3316;44.118;27.258;2024-01-10T01:23:15;8.00;;;4.83;;
6564;SDS011;3316;44.118;27.258;2024-01-10T01:25:41;9.57;;;5.47;;
6564;SDS011;3316;44.118;27.258;2024-01-10T01:28:06;12.20;;;5.77;;
6564;SDS011;3316;44.118;27.258;2024-01-10T01:30:31;9.37;;;4.93;;
6564;SDS011;3316;44.118;27.258;2024-01-10T01:32:57;12.97;;;6.03;;
6564;SDS011;3316;44.118;27.258;2024-01-10T01:35:22;13.87;;;6.23;;
6564;SDS011;3316;44.118;27.258;2024-01-10T01:37:48;13.67;;;5.33;;
6564;SDS011;3316;44.118;27.258;2024-01-10T01:40:14;10.77;;;6.33;;
6564;SDS011;3316;44.118;27.258;2024-01-10T01:42:40;11.80;;;5.23;;
6564;SDS011;3316;44.118;27.258;2024-01-10T01:45:05;9.10;;;5.47;;
6564;SDS011;3316;44.118;27.258;2024-01-10T01:47:31;11.10;;;6.30;;
6564;SDS011;3316;44.118;27.258;2024-01-10T01:49:57;11.37;;;6.67;;
6564;SDS011;3316;44.118;27.258;2024-01-10T01:52:23;11.53;;;6.70;;
6564;SDS011;3316;44.118;27.258;2024-01-10T01:54:48;13.00;;;6.73;;
6564;SDS011;3316;44.118;27.258;2024-01-10T01:57:14;12.90;;;6.27;;
6564;SDS011;3316;44.118;27.258;2024-01-10T01:59:40;10.57;;;6.07;;
6564;SDS011;3316;44.118;27.258;2024-01-10T02:02:05;12.70;;;6.77;;
6564;SDS011;3316;44.118;27.258;2024-01-10T02:04:31;12.20;;;6.17;;
6564;SDS011;3316;44.118;27.258;2024-01-10T02:06:57;11.20;;;6.37;;
6564;SDS011;3316;44.118;27.258;2024-01-10T02:09:22;16.27;;;7.30;;
6564;SDS011;3316;44.118;27.258;2024-01-10T02:11:48;14.17;;;7.27;;
6564;SDS011;3316;44.118;27.258;2024-01-10T02:14:14;16.97;;;6.33;;
6564;SDS011;3316;44.118;27.258;2024-01-10T02:16:40;15.00;;;7.23;;
6564;SDS011;3316;44.118;27.258;2024-01-10T02:19:18;14.93;;;7.27;;
6564;SDS011;3316;44.118;27.258;2024-01-10T02:21:48;12.90;;;7.50;;
6564;SDS011;3316;44.118;27.258;2024-01-10T02:24:13;14.73;;;7.13;;
6564;SDS011;3316;44.118;27.258;2024-01-10T02:26:39;14.53;;;7.50;;
6564;SDS011;3316;44.118;27.258;2024-01-10T02:29:05;15.70;;;7.47;;
6564;SDS011;3316;44.118;27.258;2024-01-10T02:31:30;16.57;;;7.23;;
6564;SDS011;3316;44.118;27.258;2024-01-10T02:33:56;17.17;;;8.17;;
6564;SDS011;3316;44.118;27.258;2024-01-10T02:36:21;13.90;;;7.70;;
6564;SDS011;3316;44.118;27.258;2024-01-10T02:38:47;12.93;;;7.73;;
6564;SDS011;3316;44.118;27.258;2024-01-10T02:41:12;14.87;;;7.90;;
6564;SDS011;3316;44.118;27.258;2024-01-10T02:43:38;13.23;;;8.13;;
6564;SDS011;3316;44.118;27.258;2024-01-10T02:46:04;12.70;;;7.30;;
6564;SDS011;3316;44.118;27.258;2024-01-10T02:48:29;11.53;;;6.00;;
6564;SDS011;3316;44.118;27.258;2024-01-10T02:50:55;14.77;;;8.07;;
6564;SDS011;3316;44.118;27.258;2024-01-10T02:53:21;15.27;;;8.07;;
6564;SDS011;3316;44.118;27.258;2024-01-10T02:55:46;16.40;;;7.90;;
6564;SDS011;3316;44.118;27.258;2024-01-10T02:58:13;16.33;;;8.13;;
6564;SDS011;3316;44.118;27.258;2024-01-10T03:00:38;14.17;;;7.90;;
6564;SDS011;3316;44.118;27.258;2024-01-10T03:03:04;15.93;;;7.37;;
6564;SDS011;3316;44.118;27.258;2024-01-10T03:05:29;12.07;;;7.40;;
6564;SDS011;3316;44.118;27.258;2024-01-10T03:07:55;16.17;;;7.80;;
6564;SDS011;3316;44.118;27.258;2024-01-10T03:10:20;13.50;;;7.17;;
6564;SDS011;3316;44.118;27.258;2024-01-10T03:12:46;15.43;;;7.77;;
6564;SDS011;3316;44.118;27.258;2024-01-10T03:15:11;11.47;;;7.60;;
6564;SDS011;3316;44.118;27.258;2024-01-10T03:17:37;11.33;;;7.20;;
6564;SDS011;3316;44.118;27.258;2024-01-10T03:20:02;15.13;;;7.40;;
6564;SDS011;3316;44.118;27.258;2024-01-10T03:22:29;11.23;;;6.23;;
6564;SDS011;3316;44.118;27.258;2024-01-10T03:24:55;16.03;;;7.50;;
6564;SDS011;3316;44.118;27.258;2024-01-10T03:27:21;14.73;;;7.63;;
6564;SDS011;3316;44.118;27.258;2024-01-10T03:29:46;13.07;;;7.47;;
6564;SDS011;3316;44.118;27.258;2024-01-10T03:32:11;13.73;;;7.23;;
6564;SDS011;3316;44.118;27.258;2024-01-10T03:34:37;13.30;;;7.60;;
6564;SDS011;3316;44.118;27.258;2024-01-10T03:37:02;13.47;;;7.60;;
6564;SDS011;3316;44.118;27.258;2024-01-10T03:39:28;14.53;;;7.67;;
6564;SDS011;3316;44.118;27.258;2024-01-10T03:41:53;12.90;;;7.43;;
6564;SDS011;3316;44.118;27.258;2024-01-10T03:44:19;14.07;;;7.13;;
6564;SDS011;3316;44.118;27.258;2024-01-10T03:46:44;12.77;;;7.17;;
6564;SDS011;3316;44.118;27.258;2024-01-10T03:49:10;14.07;;;6.97;;
6564;SDS011;3316;44.118;27.258;2024-01-10T03:51:35;12.53;;;7.83;;
6564;SDS011;3316;44.118;27.258;2024-01-10T03:54:00;14.17;;;8.10;;
6564;SDS011;3316;44.118;27.258;2024-01-10T03:56:26;15.53;;;7.57;;
6564;SDS011;3316;44.118;27.258;2024-01-10T03:58:51;10.87;;;6.40;;
6564;SDS011;3316;44.118;27.258;2024-01-10T04:01:21;12.17;;;6.60;;
6564;SDS011;3316;44.118;27.258;2024-01-10T04:03:47;11.73;;;6.57;;
6564;SDS011;3316;44.118;27.258;2024-01-10T04:06:12;13.87;;;7.27;;
6564;SDS011;3316;44.118;27.258;2024-01-10T04:08:38;13.77;;;7.33;;
6564;SDS011;3316;44.118;27.258;2024-01-10T04:11:03;10.03;;;5.97;;
6564;SDS011;3316;44.118;27.258;2024-01-10T04:13:29;10.07;;;6.10;;
6564;SDS011;3316;44.118;27.258;2024-01-10T04:15:54;12.67;;;6.50;;
6564;SDS011;3316;44.118;27.258;2024-01-10T04:18:20;14.03;;;6.57;;
6564;SDS011;3316;44.118;27.258;2024-01-10T04:20:46;12.70;;;6.33;;
6564;SDS011;3316;44.118;27.258;2024-01-10T04:23:12;15.77;;;5.70;;
6564;SDS011;3316;44.118;27.258;2024-01-10T04:25:38;12.23;;;5.93;;
6564;SDS011;3316;44.118;27.258;2024-01-10T04:28:04;13.87;;;6.03;;
6564;SDS011;3316;44.118;27.258;2024-01-10T04:30:29;11.67;;;5.73;;
6564;SDS011;3316;44.118;27.258;2024-01-10T04:32:55;11.03;;;5.83;;
6564;SDS011;3316;44.118;27.258;2024-01-10T04:35:20;8.13;;;4.73;;
6564;SDS011;3316;44.118;27.258;2024-01-10T04:37:46;9.00;;;4.90;;
6564;SDS011;3316;44.118;27.258;2024-01-10T04:40:11;10.47;;;5.83;;
6564;SDS011;3316;44.118;27.258;2024-01-10T04:42:37;9.70;;;5.43;;
6564;SDS011;3316;44.118;27.258;2024-01-10T04:45:02;8.73;;;5.23;;
6564;SDS011;3316;44.118;27.258;2024-01-10T04:47:28;18.57;;;6.13;;
6564;SDS011;3316;44.118;27.258;2024-01-10T04:49:53;7.73;;;5.67;;
6564;SDS011;3316;44.118;27.258;2024-01-10T04:52:19;11.13;;;5.30;;
6564;SDS011;3316;44.118;27.258;2024-01-10T04:54:44;11.03;;;4.87;;
6564;SDS011;3316;44.118;27.258;2024-01-10T04:57:10;7.87;;;4.53;;
6564;SDS011;3316;44.118;27.258;2024-01-10T04:59:35;9.67;;;4.07;;
6564;SDS011;3316;44.118;27.258;2024-01-10T05:02:00;11.57;;;5.23;;
6564;SDS011;3316;44.118;27.258;2024-01-10T05:04:26;10.37;;;5.47;;
6564;SDS011;3316;44.118;27.258;2024-01-10T05:06:52;9.67;;;5.07;;
6564;SDS011;3316;44.118;27.258;2024-01-10T05:09:17;7.30;;;4.80;;
6564;SDS011;3316;44.118;27.258;2024-01-10T05:11:42;13.73;;;5.33;;
6564;SDS011;3316;44.118;27.258;2024-01-10T05:14:08;10.77;;;6.07;;
6564;SDS011;3316;44.118;27.258;2024-01-10T05:16:34;6.17;;;4.30;;
6564;SDS011;3316;44.118;27.258;2024-01-10T05:19:02;10.00;;;5.20;;
6564;SDS011;3316;44.118;27.258;2024-01-10T05:21:31;7.80;;;5.03;;
6564;SDS011;3316;44.118;27.258;2024-01-10T05:23:57;7.93;;;4.40;;
6564;SDS011;3316;44.118;27.258;2024-01-10T05:26:23;11.23;;;6.10;;
6564;SDS011;3316;44.118;27.258;2024-01-10T05:28:48;10.30;;;4.20;;
6564;SDS011;3316;44.118;27.258;2024-01-10T05:31:13;7.53;;;5.00;;
6564;SDS011;3316;44.118;27.258;2024-01-10T05:33:39;8.60;;;4.83;;
6564;SDS011;3316;44.118;27.258;2024-01-10T05:36:04;8.07;;;5.10;;
6564;SDS011;3316;44.118;27.258;2024-01-10T05:38:30;8.70;;;5.23;;
6564;SDS011;3316;44.118;27.258;2024-01-10T05:40:55;15.70;;;5.40;;
6564;SDS011;3316;44.118;27.258;2024-01-10T05:43:21;8.57;;;5.27;;
6564;SDS011;3316;44.118;27.258;2024-01-10T05:45:46;11.03;;;5.00;;
6564;SDS011;3316;44.118;27.258;2024-01-10T05:48:12;12.50;;;6.13;;
6564;SDS011;3316;44.118;27.258;2024-01-10T05:50:37;21.57;;;8.77;;
6564;SDS011;3316;44.118;27.258;2024-01-10T05:53:04;28.23;;;12.63;;
6564;SDS011;3316;44.118;27.258;2024-01-10T05:55:29;26.63;;;10.73;;
6564;SDS011;3316;44.118;27.258;2024-01-10T05:57:55;29.87;;;12.23;;
6564;SDS011;3316;44.118;27.258;2024-01-10T06:00:20;25.40;;;11.43;;
6564;SDS011;3316;44.118;27.258;2024-01-10T06:02:46;35.37;;;12.57;;
6564;SDS011;3316;44.118;27.258;2024-01-10T06:05:12;23.40;;;10.73;;
6564;SDS011;3316;44.118;27.258;2024-01-10T06:07:38;23.93;;;10.40;;
6564;SDS011;3316;44.118;27.258;2024-01-10T06:10:05;22.73;;;9.73;;
6564;SDS011;3316;44.118;27.258;2024-01-10T06:12:32;24.27;;;9.98;;
6564;SDS011;3316;44.118;27.258;2024-01-10T06:14:58;17.60;;;9.17;;
6564;SDS011;3316;44.118;27.258;2024-01-10T06:17:23;25.77;;;9.37;;
6564;SDS011;3316;44.118;27.258;2024-01-10T06:19:49;20.37;;;10.27;;
6564;SDS011;3316;44.118;27.258;2024-01-10T06:22:15;23.97;;;11.53;;
6564;SDS011;3316;44.118;27.258;2024-01-10T06:24:41;21.33;;;10.80;;
6564;SDS011;3316;44.118;27.258;2024-01-10T06:27:07;22.80;;;10.87;;
6564;SDS011;3316;44.118;27.258;2024-01-10T06:29:33;25.93;;;13.40;;
6564;SDS011;3316;44.118;27.258;2024-01-10T06:31:59;24.37;;;12.87;;
6564;SDS011;3316;44.118;27.258;2024-01-10T06:34:26;24.77;;;13.37;;
6564;SDS011;3316;44.118;27.258;2024-01-10T06:36:52;32.57;;;17.33;;
6564;SDS011;3316;44.118;27.258;2024-01-10T06:39:17;38.13;;;20.60;;
6564;SDS011;3316;44.118;27.258;2024-01-10T06:41:47;39.17;;;20.58;;
6564;SDS011;3316;44.118;27.258;2024-01-10T06:44:13;35.67;;;17.90;;
6564;SDS011;3316;44.118;27.258;2024-01-10T06:46:39;47.80;;;22.97;;
6564;SDS011;3316;44.118;27.258;2024-01-10T06:49:05;42.23;;;23.80;;
6564;SDS011;3316;44.118;27.258;2024-01-10T06:51:32;39.87;;;20.47;;
6564;SDS011;3316;44.118;27.258;2024-01-10T06:53:58;42.30;;;19.13;;
6564;SDS011;3316;44.118;27.258;2024-01-10T06:56:28;39.37;;;22.93;;
6564;SDS011;3316;44.118;27.258;2024-01-10T06:58:54;53.17;;;24.37;;
6564;SDS011;3316;44.118;27.258;2024-01-10T07:01:20;50.93;;;23.73;;
6564;SDS011;3316;44.118;27.258;2024-01-10T07:03:47;64.83;;;28.97;;
6564;SDS011;3316;44.118;27.258;2024-01-10T07:06:13;87.10;;;38.77;;
6564;SDS011;3316;44.118;27.258;2024-01-10T07:08:40;58.17;;;29.27;;
6564;SDS011;3316;44.118;27.258;2024-01-10T07:11:07;47.90;;;26.47;;
6564;SDS011;3316;44.118;27.258;2024-01-10T07:13:33;35.83;;;17.90;;
6564;SDS011;3316;44.118;27.258;2024-01-10T07:15:59;38.10;;;17.17;;
6564;SDS011;3316;44.118;27.258;2024-01-10T07:18:27;52.80;;;24.57;;
6564;SDS011;3316;44.118;27.258;2024-01-10T07:20:53;31.80;;;15.87;;
6564;SDS011;3316;44.118;27.258;2024-01-10T07:23:18;29.70;;;14.97;;
6564;SDS011;3316;44.118;27.258;2024-01-10T07:25:44;96.53;;;47.10;;
6564;SDS011;3316;44.118;27.258;2024-01-10T07:28:09;41.03;;;19.80;;
6564;SDS011;3316;44.118;27.258;2024-01-10T07:30:35;39.33;;;20.07;;
6564;SDS011;3316;44.118;27.258;2024-01-10T07:33:00;57.73;;;29.83;;
6564;SDS011;3316;44.118;27.258;2024-01-10T07:35:26;27.17;;;13.30;;
6564;SDS011;3316;44.118;27.258;2024-01-10T07:37:54;66.10;;;31.50;;
6564;SDS011;3316;44.118;27.258;2024-01-10T07:40:20;80.20;;;36.33;;
6564;SDS011;3316;44.118;27.258;2024-01-10T07:42:45;23.93;;;10.80;;
6564;SDS011;3316;44.118;27.258;2024-01-10T07:45:11;60.93;;;30.73;;
6564;SDS011;3316;44.118;27.258;2024-01-10T07:47:37;95.37;;;46.17;;
6564;SDS011;3316;44.118;27.258;2024-01-10T07:50:04;43.40;;;21.17;;
6564;SDS011;3316;44.118;27.258;2024-01-10T07:52:30;28.67;;;15.03;;
6564;SDS011;3316;44.118;27.258;2024-01-10T07:54:56;45.60;;;22.00;;
6564;SDS011;3316;44.118;27.258;2024-01-10T07:57:22;24.57;;;12.40;;
6564;SDS011;3316;44.118;27.258;2024-01-10T07:59:47;27.00;;;14.37;;
6564;SDS011;3316;44.118;27.258;2024-01-10T08:02:13;26.37;;;12.33;;
6564;SDS011;3316;44.118;27.258;2024-01-10T08:04:38;31.07;;;13.87;;
6564;SDS011;3316;44.118;27.258;2024-01-10T08:07:03;28.20;;;12.63;;
6564;SDS011;3316;44.118;27.258;2024-01-10T08:09:29;24.67;;;13.83;;
6564;SDS011;3316;44.118;27.258;2024-01-10T08:11:55;24.30;;;12.90;;
6564;SDS011;3316;44.118;27.258;2024-01-10T08:14:21;16.83;;;10.20;;
6564;SDS011;3316;44.118;27.258;2024-01-10T08:16:46;25.97;;;11.40;;
6564;SDS011;3316;44.118;27.258;2024-01-10T08:19:12;27.10;;;13.37;;
6564;SDS011;3316;44.118;27.258;2024-01-10T08:21:37;29.37;;;12.73;;
6564;SDS011;3316;44.118;27.258;2024-01-10T08:24:03;24.37;;;12.50;;
6564;SDS011;3316;44.118;27.258;2024-01-10T08:26:28;34.37;;;15.37;;
6564;SDS011;3316;44.118;27.258;2024-01-10T08:28:56;31.03;;;12.40;;
6564;SDS011;3316;44.118;27.258;2024-01-10T08:31:22;25.97;;;12.50;;
6564;SDS011;3316;44.118;27.258;2024-01-10T08:33:48;21.90;;;11.13;;
6564;SDS011;3316;44.118;27.258;2024-01-10T08:36:14;19.50;;;10.97;;
6564;SDS011;3316;44.118;27.258;2024-01-10T08:38:39;22.10;;;10.50;;
6564;SDS011;3316;44.118;27.258;2024-01-10T08:41:07;20.67;;;11.23;;
6564;SDS011;3316;44.118;27.258;2024-01-10T08:43:33;20.53;;;11.30;;
6564;SDS011;3316;44.118;27.258;2024-01-10T08:45:59;22.17;;;11.30;;
6564;SDS011;3316;44.118;27.258;2024-01-10T08:48:24;16.03;;;9.50;;
6564;SDS011;3316;44.118;27.258;2024-01-10T08:50:50;17.17;;;10.83;;
6564;SDS011;3316;44.118;27.258;2024-01-10T08:53:16;17.87;;;10.17;;
6564;SDS011;3316;44.118;27.258;2024-01-10T08:55:41;18.67;;;10.90;;
6564;SDS011;3316;44.118;27.258;2024-01-10T08:58:07;19.47;;;10.90;;
6564;SDS011;3316;44.118;27.258;2024-01-10T09:00:33;18.07;;;10.63;;
6564;SDS011;3316;44.118;27.258;2024-01-10T09:02:59;17.97;;;11.23;;
6564;SDS011;3316;44.118;27.258;2024-01-10T09:05:25;21.63;;;11.17;;
6564;SDS011;3316;44.118;27.258;2024-01-10T09:07:51;18.90;;;11.17;;
6564;SDS011;3316;44.118;27.258;2024-01-10T09:10:18;19.40;;;11.47;;
6564;SDS011;3316;44.118;27.258;2024-01-10T09:12:46;18.73;;;10.77;;
6564;SDS011;3316;44.118;27.258;2024-01-10T09:15:12;19.10;;;10.93;;
6564;SDS011;3316;44.118;27.258;2024-01-10T09:17:39;18.87;;;11.33;;
6564;SDS011;3316;44.118;27.258;2024-01-10T09:20:06;21.47;;;12.43;;
6564;SDS011;3316;44.118;27.258;2024-01-10T09:22:31;27.00;;;15.27;;
6564;SDS011;3316;44.118;27.258;2024-01-10T09:24:57;23.33;;;12.40;;
6564;SDS011;3316;44.118;27.258;2024-01-10T09:27:28;22.77;;;12.40;;
6564;SDS011;3316;44.118;27.258;2024-01-10T09:29:54;18.63;;;10.90;;
6564;SDS011;3316;44.118;27.258;2024-01-10T09:32:19;18.17;;;11.80;;
6564;SDS011;3316;44.118;27.258;2024-01-10T09:34:44;17.83;;;10.27;;
6564;SDS011;3316;44.118;27.258;2024-01-10T09:37:10;23.07;;;12.10;;
6564;SDS011;3316;44.118;27.258;2024-01-10T09:39:36;18.60;;;12.20;;
6564;SDS011;3316;44.118;27.258;2024-01-10T09:42:01;29.60;;;16.73;;
6564;SDS011;3316;44.118;27.258;2024-01-10T09:44:26;18.83;;;12.20;;
6564;SDS011;3316;44.118;27.258;2024-01-10T09:46:54;19.40;;;11.43;;
6564;SDS011;3316;44.118;27.258;2024-01-10T09:49:20;17.47;;;10.80;;
6564;SDS011;3316;44.118;27.258;2024-01-10T09:51:50;18.23;;;11.70;;
6564;SDS011;3316;44.118;27.258;2024-01-10T09:54:24;17.93;;;11.10;;
6564;SDS011;3316;44.118;27.258;2024-01-10T09:56:51;19.30;;;10.80;;
6564;SDS011;3316;44.118;27.258;2024-01-10T09:59:16;18.33;;;11.60;;
6564;SDS011;3316;44.118;27.258;2024-01-10T10:01:42;22.73;;;13.63;;
6564;SDS011;3316;44.118;27.258;2024-01-10T10:04:09;19.93;;;11.87;;
6564;SDS011;3316;44.118;27.258;2024-01-10T10:06:37;17.07;;;10.67;;
6564;SDS011;3316;44.118;27.258;2024-01-10T10:09:02;19.70;;;10.93;;
6564;SDS011;3316;44.118;27.258;2024-01-10T10:11:29;16.93;;;10.40;;
6564;SDS011;3316;44.118;27.258;2024-01-10T10:13:54;18.73;;;10.13;;
6564;SDS011;3316;44.118;27.258;2024-01-10T10:16:24;19.67;;;10.47;;
6564;SDS011;3316;44.118;27.258;2024-01-10T10:18:54;17.97;;;10.47;;
6564;SDS011;3316;44.118;27.258;2024-01-10T10:21:24;27.80;;;13.60;;
6564;SDS011;3316;44.118;27.258;2024-01-10T10:23:58;23.57;;;12.37;;
6564;SDS011;3316;44.118;27.258;2024-01-10T10:26:26;25.10;;;12.07;;
6564;SDS011;3316;44.118;27.258;2024-01-10T10:28:52;20.87;;;10.83;;
6564;SDS011;3316;44.118;27.258;2024-01-10T10:31:18;27.97;;;13.40;;
6564;SDS011;3316;44.118;27.258;2024-01-10T10:33:45;22.07;;;12.23;;
6564;SDS011;3316;44.118;27.258;2024-01-10T10:36:13;23.33;;;11.30;;
6564;SDS011;3316;44.118;27.258;2024-01-10T10:38:39;20.93;;;11.77;;
6564;SDS011;3316;44.118;27.258;2024-01-10T10:41:06;18.50;;;11.00;;
6564;SDS011;3316;44.118;27.258;2024-01-10T10:43:35;20.83;;;12.57;;
6564;SDS011;3316;44.118;27.258;2024-01-10T10:46:02;23.17;;;13.17;;
6564;SDS011;3316;44.118;27.258;2024-01-10T10:48:32;21.87;;;12.40;;
6564;SDS011;3316;44.118;27.258;2024-01-10T10:51:09;23.87;;;11.03;;
6564;SDS011;3316;44.118;27.258;2024-01-10T10:53:42;22.20;;;12.67;;
6564;SDS011;3316;44.118;27.258;2024-01-10T10:56:10;22.73;;;12.40;;
6564;SDS011;3316;44.118;27.258;2024-01-10T10:58:40;19.30;;;11.87;;
6564;SDS011;3316;44.118;27.258;2024-01-10T11:01:08;22.53;;;12.00;;
6564;SDS011;3316;44.118;27.258;2024-01-10T11:03:36;23.17;;;12.43;;
6564;SDS011;3316;44.118;27.258;2024-01-10T11:06:06;21.03;;;12.77;;
6564;SDS011;3316;44.118;27.258;2024-01-10T11:08:42;30.57;;;13.73;;
6564;SDS011;3316;44.118;27.258;2024-01-10T11:11:25;32.03;;;15.87;;
6564;SDS011;3316;44.118;27.258;2024-01-10T11:17:21;34.73;;;15.27;;
6564;SDS011;3316;44.118;27.258;2024-01-10T11:25:42;17.87;;;9.77;;
6564;SDS011;3316;44.118;27.258;2024-01-10T11:28:07;16.83;;;8.80;;
6564;SDS011;3316;44.118;27.258;2024-01-10T11:30:36;16.63;;;9.37;;
6564;SDS011;3316;44.118;27.258;2024-01-10T11:33:32;12.63;;;7.07;;
6564;SDS011;3316;44.118;27.258;2024-01-10T11:36:05;11.70;;;6.10;;
6564;SDS011;3316;44.118;27.258;2024-01-10T11:38:32;9.03;;;6.13;;
6564;SDS011;3316;44.118;27.258;2024-01-10T11:40:57;10.87;;;6.43;;
6564;SDS011;3316;44.118;27.258;2024-01-10T11:43:23;11.83;;;5.53;;
6564;SDS011;3316;44.118;27.258;2024-01-10T11:45:52;13.63;;;7.47;;
6564;SDS011;3316;44.118;27.258;2024-01-10T11:48:25;12.83;;;6.80;;
6564;SDS011;3316;44.118;27.258;2024-01-10T11:50:52;12.57;;;6.17;;
6564;SDS011;3316;44.118;27.258;2024-01-10T11:53:37;9.60;;;6.20;;
6564;SDS011;3316;44.118;27.258;2024-01-10T11:56:12;11.07;;;6.90;;
6564;SDS011;3316;44.118;27.258;2024-01-10T12:01:42;11.80;;;6.23;;
6564;SDS011;3316;44.118;27.258;2024-01-10T12:04:07;13.40;;;7.13;;
6564;SDS011;3316;44.118;27.258;2024-01-10T12:06:36;10.50;;;6.47;;
6564;SDS011;3316;44.118;27.258;2024-01-10T12:09:02;8.83;;;5.53;;
6564;SDS011;3316;44.118;27.258;2024-01-10T12:11:34;10.37;;;6.10;;
6564;SDS011;3316;44.118;27.258;2024-01-10T12:14:00;13.50;;;6.50;;
6564;SDS011;3316;44.118;27.258;2024-01-10T12:16:28;11.33;;;6.93;;
6564;SDS011;3316;44.118;27.258;2024-01-10T12:18:54;10.87;;;6.53;;
6564;SDS011;3316;44.118;27.258;2024-01-10T12:21:20;12.73;;;6.50;;
6564;SDS011;3316;44.118;27.258;2024-01-10T12:23:46;11.43;;;5.97;;
6564;SDS011;3316;44.118;27.258;2024-01-10T12:26:12;10.60;;;5.77;;
6564;SDS011;3316;44.118;27.258;2024-01-10T12:28:38;9.50;;;5.83;;
6564;SDS011;3316;44.118;27.258;2024-01-10T12:31:04;9.97;;;6.10;;
6564;SDS011;3316;44.118;27.258;2024-01-10T12:33:32;12.97;;;6.03;;
6564;SDS011;3316;44.118;27.258;2024-01-10T12:36:10;12.53;;;6.83;;
6564;SDS011;3316;44.118;27.258;2024-01-10T12:38:36;13.53;;;6.53;;
6564;SDS011;3316;44.118;27.258;2024-01-10T12:41:04;13.13;;;6.07;;
6564;SDS011;3316;44.118;27.258;2024-01-10T12:43:30;11.63;;;6.53;;
6564;SDS011;3316;44.118;27.258;2024-01-10T12:46:08;9.50;;;6.03;;
6564;SDS011;3316;44.118;27.258;2024-01-10T12:48:38;12.03;;;6.43;;
6564;SDS011;3316;44.118;27.258;2024-01-10T12:51:08;14.90;;;7.87;;
6564;SDS011;3316;44.118;27.258;2024-01-10T12:53:40;17.77;;;9.77;;
6564;SDS011;3316;44.118;27.258;2024-01-10T12:56:08;13.90;;;8.43;;
6564;SDS011;3316;44.118;27.258;2024-01-10T12:58:37;14.43;;;8.67;;
6564;SDS011;3316;44.118;27.258;2024-01-10T13:01:03;11.80;;;7.47;;
6564;SDS011;3316;44.118;27.258;2024-01-10T13:03:28;14.33;;;7.23;;
6564;SDS011;3316;44.118;27.258;2024-01-10T13:05:54;14.97;;;8.10;;
6564;SDS011;3316;44.118;27.258;2024-01-10T13:08:20;10.77;;;6.00;;
6564;SDS011;3316;44.118;27.258;2024-01-10T13:10:46;30.80;;;14.97;;
6564;SDS011;3316;44.118;27.258;2024-01-10T13:13:15;13.03;;;7.20;;
6564;SDS011;3316;44.118;27.258;2024-01-10T13:15:42;21.10;;;8.23;;
6564;SDS011;3316;44.118;27.258;2024-01-10T13:18:08;16.53;;;7.83;;
6564;SDS011;3316;44.118;27.258;2024-01-10T13:20:37;13.97;;;7.53;;
6564;SDS011;3316;44.118;27.258;2024-01-10T13:23:05;15.63;;;9.20;;
6564;SDS011;3316;44.118;27.258;2024-01-10T13:25:31;15.57;;;8.83;;
6564;SDS011;3316;44.118;27.258;2024-01-10T13:27:57;17.33;;;10.67;;
6564;SDS011;3316;44.118;27.258;2024-01-10T13:30:22;12.30;;;7.80;;
6564;SDS011;3316;44.118;27.258;2024-01-10T13:32:48;15.60;;;8.93;;
6564;SDS011;3316;44.118;27.258;2024-01-10T13:35:13;18.93;;;9.07;;
6564;SDS011;3316;44.118;27.258;2024-01-10T13:37:41;16.27;;;7.23;;
6564;SDS011;3316;44.118;27.258;2024-01-10T13:40:07;15.93;;;7.50;;
6564;SDS011;3316;44.118;27.258;2024-01-10T13:42:35;13.70;;;8.17;;
6564;SDS011;3316;44.118;27.258;2024-01-10T13:45:03;14.60;;;7.37;;
6564;SDS011;3316;44.118;27.258;2024-01-10T13:47:33;17.17;;;8.00;;
6564;SDS011;3316;44.118;27.258;2024-01-10T13:49:59;11.97;;;6.87;;
6564;SDS011;3316;44.118;27.258;2024-01-10T13:52:25;14.30;;;7.40;;
6564;SDS011;3316;44.118;27.258;2024-01-10T13:54:50;15.10;;;7.67;;
6564;SDS011;3316;44.118;27.258;2024-01-10T13:57:17;16.53;;;8.03;;
6564;SDS011;3316;44.118;27.258;2024-01-10T13:59:42;16.20;;;8.50;;
6564;SDS011;3316;44.118;27.258;2024-01-10T14:02:08;12.70;;;7.33;;
6564;SDS011;3316;44.118;27.258;2024-01-10T14:04:35;17.20;;;8.70;;
6564;SDS011;3316;44.118;27.258;2024-01-10T14:07:00;13.13;;;7.63;;
6564;SDS011;3316;44.118;27.258;2024-01-10T14:09:25;17.67;;;8.17;;
6564;SDS011;3316;44.118;27.258;2024-01-10T14:11:51;15.60;;;7.57;;
6564;SDS011;3316;44.118;27.258;2024-01-10T14:14:17;15.97;;;8.60;;
6564;SDS011;3316;44.118;27.258;2024-01-10T14:16:43;13.23;;;6.63;;
6564;SDS011;3316;44.118;27.258;2024-01-10T14:19:09;15.23;;;7.47;;
6564;SDS011;3316;44.118;27.258;2024-01-10T14:21:34;12.67;;;6.63;;
6564;SDS011;3316;44.118;27.258;2024-01-10T14:24:00;13.53;;;6.70;;
6564;SDS011;3316;44.118;27.258;2024-01-10T14:26:26;16.80;;;8.03;;
6564;SDS011;3316;44.118;27.258;2024-01-10T14:28:52;14.23;;;7.83;;
6564;SDS011;3316;44.118;27.258;2024-01-10T14:31:21;15.53;;;7.00;;
6564;SDS011;3316;44.118;27.258;2024-01-10T14:33:47;13.10;;;7.13;;
6564;SDS011;3316;44.118;27.258;2024-01-10T14:36:13;14.30;;;7.00;;
6564;SDS011;3316;44.118;27.258;2024-01-10T14:38:39;13.60;;;6.80;;
6564;SDS011;3316;44.118;27.258;2024-01-10T14:41:05;13.10;;;7.00;;
6564;SDS011;3316;44.118;27.258;2024-01-10T14:43:31;11.47;;;6.80;;
6564;SDS011;3316;44.118;27.258;2024-01-10T14:45:57;12.33;;;7.17;;
6564;SDS011;3316;44.118;27.258;2024-01-10T14:48:22;14.10;;;7.37;;
6564;SDS011;3316;44.118;27.258;2024-01-10T14:50:48;13.80;;;6.80;;
6564;SDS011;3316;44.118;27.258;2024-01-10T14:53:13;14.87;;;7.13;;